Terminal Aerodrome Forecast
Issued by NWS Wilmington, OH

Home | Current Version | Previous Version | Text Only | Print | Product List | Glossary On
Versions: 1 2 3 4 5 6 7 8 9 10 11 12 13 14 15 16 17 18 19 20 21 22 23 24 25 26 27 28 29 30 31 32 33 34 35 36
000
FTUS41 KILN 291459 AAB
TAFCVG
TAF AMD
KCVG 291459Z 2915/3018 18005KT P6SM SCT020 BKN250
      TEMPO 2915/2916 BKN020
     FM291800 24004KT P6SM VCTS BKN040CB BKN150
     FM300400 00000KT P6SM SCT150
     FM300600 00000KT 4SM BR SCT150
     FM301300 27006KT P6SM SCT035=

USA.gov is the U.S. government's official web portal to all federal, state and local government web resources and services.